Terminal Aerodrome Forecast
Issued by NWS

Home | Current Version | Previous Version | Text Only | Print | Product List | Glossary On
Versions: 1 2 3 4 5 6 7 8 9 10 11 12
297
FTUS44 KEPZ 290534
TAFLRU
TAF
KLRU 290534Z 2906/3006 15006KT P6SM FEW250
     FM292000 14008KT P6SM SCT090=

USA.gov is the U.S. government's official web portal to all federal, state and local government web resources and services.